Historyczne dane pomiarowe

Dodano dane terminowe – wersja testowa.

Dane z okresu 1951-2019

Wersja bazy: 1.34 [2019-03-16, lista zmian], aktualizacja planowana na 2019-04-15

Dane meteo z obszaru Polski uzyskane na podstawie danych udostępnionych przez Instytut Meteorologii i Gospodarki Wodnej – Państwowy Instytut Badawczy.

 

Wybierz Datę:    

       

TemperaturaWilgotnośćWiatrCiśnienieOpadyŚniegCzas trwania zjawisk
 Stacja t tx tn tng RH VA  wxwx mslp ppp RRR   cm mm wxwxwxwxwxwxwx
1994-08-14 14.0 18.2 11.6- 82.3- 6.3 1.0---- 0.1------------
1994-08-13 15.7 21.1 12.2- 85.8- 4.3 1.0---- 0.6------------
1994-08-12 14.7 21.4 10.2- 95.3- 2.7 0.0---- 8.0------------
1994-08-11 19.4 30.1 9.5- 82.0- 5.3 2.0---- 18.4------------
1994-08-10 19.0 26.6 15.2- 80.0- 3.3 0.7---- 0.0------------
1994-08-09 19.9 28.3 12.0- 80.0- 4.3 1.3---- 0.0------------
1994-08-08 18.2 29.4 12.6- 86.8- 6.3 0.3---- 0.6------------
1994-08-07 18.8 29.1 9.5- 84.8- 4.0 0.0---- 0.0------------
1994-08-06 18.1 29.6 6.3- 80.3- 2.3 0.3---- 0.0------------
1994-08-05 18.5 27.5 10.2- 79.0- 1.3 0.3---- 0.0------------
1994-08-04 18.7 26.3 13.0- 86.3- 5.0 1.0---- 0.0------------
1994-08-03 19.2 30.1 9.6- 81.3- 5.0 0.7---- 3.0------------
1994-08-02 18.8 30.6 6.7- 76.5- 0.7 0.3---- 0.0------------
1994-08-01 19.7 30.4 10.0- 77.3- 3.3 0.7---- 0.0------------
1994-07-31 19.6 30.2 9.2- 77.0- 0.3 0.3---- 0.0------------
1994-07-30 19.1 29.3 8.3- 77.3- 0.3 0.3---- 0.0------------
1994-07-29 18.5 30.2 6.6- 76.5- 0.7 0.3---- 0.0------------
1994-07-28 18.5 29.0 7.2- 73.0- 1.3 0.3---- 0.0------------
1994-07-27 18.0 29.2 7.7- 79.5- 1.7 0.3---- 0.0------------
1994-07-26 18.2 30.2 5.9- 79.3- 1.3 0.7---- 0.0------------
1994-07-25 17.4 28.1 5.7- 71.0- 1.3 0.3---- 0.0------------
1994-07-24 16.8 26.5 6.1- 78.0- 0.3 0.3---- 0.0------------
1994-07-23 16.4 26.0 4.6- 76.0- 1.0 0.7---- 0.0------------
1994-07-22 15.7 25.4 4.5- 75.8- 1.3 0.3---- 0.0------------
1994-07-21 15.0 24.0 4.1- 77.5- 1.3 0.3---- 0.0------------
1994-07-20 15.4 21.8 7.5- 77.5- 3.3 0.3---- 0.0------------
1994-07-19 17.5 23.9 13.0- 86.5- 6.3 0.3---- 0.0------------
1994-07-18 17.7 24.0 13.0- 89.8- 6.0 0.3---- 9.9------------
1994-07-17 18.7 27.2 9.3- 87.8- 2.3 1.0---- 0.0------------
1994-07-16 19.0 27.6 8.7- 83.3- 2.7 0.3---- 0.0------------
1994-07-15 19.3 25.0 11.1- 82.0- 4.7 0.3---- 0.0------------
1994-07-14 18.1 25.4 8.7- 80.3- 4.3 0.3---- 0.0------------
1994-07-13 17.1 24.6 7.5- 84.8- 5.7 0.3---- 1.3------------
1994-07-12 18.7 23.7 15.2- 80.8- 4.7 1.3---- 0.0------------
1994-07-11 13.9 17.4 8.5- 94.0- 8.0 1.0---- 0.2------------
1994-07-10 13.3 18.0 10.5- 92.8- 6.3 1.0---- 2.6------------
1994-07-09 14.2 19.6 5.9- 86.0- 6.0 0.3---- 1.3------------
1994-07-08 15.9 20.2 13.6- 87.8- 7.3 1.0---- 0.0------------
1994-07-07 15.7 24.5 4.8- 79.8- 4.0 0.7---- 0.2------------
1994-07-06 17.7 22.6 11.7- 75.0- 1.0 1.0---- 0.0------------
1994-07-05 17.2 25.9 5.7- 80.0- 5.0 0.7---- 0.0------------
1994-07-04 15.8 25.7 4.8- 78.0- 1.3 0.3---- 0.0------------
1994-07-03 15.3 24.5 4.2- 79.8- 0.3 0.7---- 0.0------------
1994-07-02 15.1 21.9 6.2- 77.0- 0.3 1.0---- 0.0------------
1994-07-01 17.9 21.7 11.5- 83.8- 5.0 0.3---- 0.0------------
1994-06-30 20.6 28.9 12.1- 85.5- 4.0 0.3---- 18.9------------
1994-06-29 21.2 29.6 10.5- 80.5- 2.0 0.7---- 0.0------------
1994-06-28 20.9 28.2 12.0- 81.3- 1.7 0.3---- 0.0------------
1994-06-27 20.7 28.2 11.6- 78.0- 2.0 1.3---- 0.0------------
1994-06-26 15.8 24.6 2.3- 71.5- 0.0 1.0---- 0.0------------
1994-06-25 12.4 21.0 -0.4- 78.5- 0.3 0.3---- 0.0------------
1994-06-24 12.4 18.8 0.9- 65.0- 0.3 1.3---- 0.0------------
1994-06-23 17.8 20.4 15.1- 76.3- 4.0 2.0---- 0.0------------
1994-06-22 14.8 24.2 2.0- 76.8- 3.3 1.3---- 0.0------------
1994-06-21 12.8 18.4 4.9- 75.0- 1.7 1.7---- 0.0------------
1994-06-20 16.3 21.4 7.7- 81.5- 2.3 1.3---- 0.0------------
1994-06-19 14.6 20.4 9.0- 85.8- 5.7 1.0---- 0.0------------
1994-06-18 9.6 15.6 0.4- 82.3- 5.0 2.0---- 5.1------------
1994-06-17 9.4 13.6 6.5- 90.5- 7.3 0.3---- 1.2------------
1994-06-16 13.1 18.7 3.9- 84.3- 5.7 0.7---- 12.3------------
309.7 ms

 

Źródłem pochodzenia danych jest Instytut Meteorologii i Gospodarki Wodnej – Państwowy Instytut Badawczy. Dane Instytutu Meteorologii i Gospodarki Wodnej – Państwowego Instytutu Badawczego zostały przetworzone.

Dane źródłowe można odnaleźć na stronie https://dane.imgw.pl